Time;durP1;ratioP1;P1;durP2;ratioP2;P2;SDS_P1;SDS_P2;PMS_P1;PMS_P2;Temp;Humidity;BMP_temperature;BMP_pressure;BME280_temperature;BME280_humidity;BME280_pressure;Samples;Min_cycle;Max_cycle;Signal;HPM_P1;HPM_P2
2022/01/10 00:00:00;;;;;;;76.72;24.13;;;;;;;;;;5042038;28;20044;-54
2022/01/10 00:02:27;;;;;;;73.95;25.77;;;;;;;;;;5042423;28;20028;-54
2022/01/10 00:04:52;;;;;;;82.50;25.55;;;;;;;;;;5040515;28;20047;-53
2022/01/10 00:07:18;;;;;;;89.50;28.48;;;;;;;;;;5041178;28;20037;-53
2022/01/10 00:09:44;;;;;;;89.32;28.23;;;;;;;;;;5040718;28;20127;-53
2022/01/10 00:12:10;;;;;;;84.93;27.45;;;;;;;;;;5041338;28;20040;-54
2022/01/10 00:14:36;;;;;;;90.68;27.50;;;;;;;;;;5042511;28;20037;-51
2022/01/10 00:17:03;;;;;;;86.03;27.55;;;;;;;;;;5043132;28;20086;-53
2022/01/10 00:19:28;;;;;;;79.55;26.85;;;;;;;;;;5039311;28;20044;-54
2022/01/10 00:21:54;;;;;;;78.28;27.67;;;;;;;;;;5039617;28;20033;-54
2022/01/10 00:24:19;;;;;;;82.82;28.73;;;;;;;;;;5040962;28;20110;-54
2022/01/10 00:26:45;;;;;;;102.15;27.60;;;;;;;;;;5041241;28;20032;-51
2022/01/10 00:29:10;;;;;;;105.78;29.90;;;;;;;;;;5039658;28;20066;-54
2022/01/10 00:31:36;;;;;;;89.25;28.98;;;;;;;;;;5038890;28;20518;-54
2022/01/10 00:34:01;;;;;;;84.40;27.23;;;;;;;;;;5037123;28;20029;-52
2022/01/10 00:36:27;;;;;;;93.00;27.77;;;;;;;;;;5043684;28;20563;-54
2022/01/10 00:38:52;;;;;;;73.63;27.20;;;;;;;;;;5039333;28;20087;-53
2022/01/10 00:41:18;;;;;;;91.07;27.52;;;;;;;;;;5038423;28;20033;-53
2022/01/10 00:43:46;;;;;;;81.28;28.40;;;;;;;;;;5038691;28;20103;-54
2022/01/10 00:46:12;;;;;;;83.35;27.80;;;;;;;;;;5037380;28;20476;-51
2022/01/10 00:48:38;;;;;;;78.40;28.35;;;;;;;;;;5034294;28;20420;-52
2022/01/10 00:51:04;;;;;;;74.93;27.58;;;;;;;;;;5041175;28;20027;-52
2022/01/10 00:53:30;;;;;;;90.72;27.50;;;;;;;;;;5042781;28;20455;-53
2022/01/10 00:55:55;;;;;;;89.20;28.20;;;;;;;;;;5038827;28;20033;-54
2022/01/10 00:58:21;;;;;;;78.45;24.88;;;;;;;;;;5037541;28;20094;-53
2022/01/10 01:00:47;;;;;;;75.40;24.70;;;;;;;;;;5035573;28;20037;-54
2022/01/10 01:03:12;;;;;;;71.00;23.90;;;;;;;;;;5035548;28;20048;-53
2022/01/10 01:05:41;;;;;;;70.43;22.30;;;;;;;;;;5035989;28;20575;-52
2022/01/10 01:08:09;;;;;;;67.63;21.33;;;;;;;;;;5035403;28;20468;-53
2022/01/10 01:13:35;;;;;;;56.58;17.80;;;;;;;;;;5035540;28;20166;-54
2022/01/10 01:24:06;;;;;;;64.90;15.90;;;;;;;;;;5041663;28;20047;-53
2022/01/10 01:26:39;;;;;;;65.65;17.13;;;;;;;;;;5037493;28;20410;-52
2022/01/10 01:29:07;;;;;;;52.72;15.52;;;;;;;;;;5037493;28;20132;-53
2022/01/10 01:31:33;;;;;;;44.40;15.25;;;;;;;;;;5039803;28;20431;-53
2022/01/10 01:33:59;;;;;;;47.53;16.15;;;;;;;;;;5037319;28;20584;-53
2022/01/10 01:36:25;;;;;;;56.05;16.02;;;;;;;;;;5037577;28;20040;-53
2022/01/10 01:38:52;;;;;;;45.65;14.02;;;;;;;;;;5036205;28;20072;-53
2022/01/10 01:43:45;;;;;;;49.42;16.50;;;;;;;;;;5033226;28;20083;-54
2022/01/10 01:46:10;;;;;;;55.78;16.10;;;;;;;;;;5042102;28;20451;-54
2022/01/10 01:48:36;;;;;;;68.35;19.77;;;;;;;;;;5035376;28;20044;-53
2022/01/10 01:51:03;;;;;;;64.22;19.15;;;;;;;;;;5037737;28;20036;-53
2022/01/10 01:53:30;;;;;;;59.22;17.67;;;;;;;;;;5035332;28;20045;-54
2022/01/10 01:56:00;;;;;;;59.22;17.75;;;;;;;;;;5039975;28;20392;-54
2022/01/10 01:58:26;;;;;;;52.20;18.25;;;;;;;;;;5044206;28;20032;-54
2022/01/10 02:00:52;;;;;;;48.92;18.83;;;;;;;;;;5041558;28;20029;-53
2022/01/10 02:03:18;;;;;;;60.60;18.17;;;;;;;;;;5039186;28;20022;-53
2022/01/10 02:05:44;;;;;;;55.78;20.35;;;;;;;;;;5037973;28;20123;-53
2022/01/10 02:08:10;;;;;;;52.20;19.55;;;;;;;;;;5040292;28;20431;-52
2022/01/10 02:10:37;;;;;;;69.55;21.77;;;;;;;;;;5038812;28;20035;-52
2022/01/10 02:13:03;;;;;;;73.60;23.05;;;;;;;;;;5041006;28;20413;-55
2022/01/10 02:15:34;;;;;;;65.25;21.02;;;;;;;;;;5035279;28;20044;-54
2022/01/10 02:18:00;;;;;;;64.07;19.92;;;;;;;;;;5043904;28;20035;-54
2022/01/10 02:20:31;;;;;;;53.88;16.55;;;;;;;;;;5039352;28;20033;-54
2022/01/10 02:22:57;;;;;;;45.30;14.00;;;;;;;;;;5035322;28;20423;-54
2022/01/10 02:25:23;;;;;;;56.95;14.50;;;;;;;;;;5037320;28;20049;-53
2022/01/10 02:27:49;;;;;;;51.45;13.32;;;;;;;;;;5042516;28;20387;-53
2022/01/10 02:30:15;;;;;;;38.70;12.68;;;;;;;;;;5035019;28;20029;-53
2022/01/10 02:32:40;;;;;;;39.65;12.48;;;;;;;;;;5043156;28;20021;-53
2022/01/10 02:35:18;;;;;;;44.28;10.57;;;;;;;;;;5034745;28;20091;-53
2022/01/10 02:37:43;;;;;;;31.25;10.25;;;;;;;;;;5037006;28;20125;-53
2022/01/10 02:40:13;;;;;;;41.72;9.48;;;;;;;;;;5040806;28;20190;-53
2022/01/10 02:42:39;;;;;;;23.92;7.85;;;;;;;;;;5043550;28;20042;-53
2022/01/10 02:45:05;;;;;;;27.48;7.65;;;;;;;;;;5045359;28;20039;-54
2022/01/10 02:47:31;;;;;;;32.47;7.03;;;;;;;;;;5040020;28;20059;-54
2022/01/10 02:49:57;;;;;;;25.67;8.80;;;;;;;;;;5047534;28;20032;-54
2022/01/10 02:52:22;;;;;;;27.90;7.57;;;;;;;;;;5043221;28;20147;-54
2022/01/10 02:54:48;;;;;;;26.25;7.22;;;;;;;;;;5037554;28;20333;-54
2022/01/10 02:57:13;;;;;;;27.02;7.10;;;;;;;;;;5042024;28;20029;-53
2022/01/10 02:59:39;;;;;;;30.50;6.35;;;;;;;;;;5041896;28;20064;-54
2022/01/10 03:02:07;;;;;;;42.80;7.38;;;;;;;;;;5050790;28;20090;-52
2022/01/10 03:04:33;;;;;;;25.42;6.78;;;;;;;;;;5055829;28;20036;-54
2022/01/10 03:06:58;;;;;;;20.98;4.78;;;;;;;;;;5040137;28;20025;-53
2022/01/10 03:09:24;;;;;;;23.75;5.65;;;;;;;;;;5039588;28;20287;-53
2022/01/10 03:11:50;;;;;;;16.08;5.22;;;;;;;;;;5044065;28;20086;-54
2022/01/10 03:14:16;;;;;;;33.17;5.97;;;;;;;;;;5040310;28;20028;-53
2022/01/10 03:16:42;;;;;;;25.95;5.35;;;;;;;;;;5045746;28;20040;-52
2022/01/10 03:19:08;;;;;;;18.38;5.70;;;;;;;;;;5040933;28;20097;-54
2022/01/10 03:21:35;;;;;;;14.85;4.35;;;;;;;;;;5033572;28;20129;-54
2022/01/10 03:24:02;;;;;;;17.67;5.15;;;;;;;;;;5041126;28;20086;-53
2022/01/10 03:26:27;;;;;;;17.77;5.35;;;;;;;;;;5042827;28;20095;-54
2022/01/10 03:28:54;;;;;;;26.70;6.28;;;;;;;;;;5043736;28;20455;-54
2022/01/10 03:31:19;;;;;;;24.55;5.15;;;;;;;;;;5041547;28;20028;-54
2022/01/10 03:33:45;;;;;;;17.65;5.38;;;;;;;;;;5040743;28;20072;-54
2022/01/10 03:36:11;;;;;;;19.40;5.13;;;;;;;;;;5039938;28;20553;-54
2022/01/10 03:38:36;;;;;;;17.63;4.97;;;;;;;;;;5041715;28;20536;-53
2022/01/10 03:41:02;;;;;;;19.70;5.32;;;;;;;;;;5044704;28;20123;-51
2022/01/10 03:43:28;;;;;;;15.82;4.43;;;;;;;;;;5044827;28;20708;-54
2022/01/10 03:45:54;;;;;;;14.00;4.97;;;;;;;;;;5045527;28;20496;-55
2022/01/10 03:48:19;;;;;;;14.93;5.90;;;;;;;;;;5045831;28;20116;-54
2022/01/10 03:50:45;;;;;;;13.93;4.35;;;;;;;;;;5046254;28;20153;-54
2022/01/10 03:53:10;;;;;;;18.77;5.15;;;;;;;;;;5038247;28;20052;-55
2022/01/10 03:55:36;;;;;;;21.15;5.32;;;;;;;;;;5041480;28;20033;-53
2022/01/10 03:58:02;;;;;;;18.25;4.65;;;;;;;;;;5039150;28;20086;-53
2022/01/10 04:00:28;;;;;;;17.80;5.28;;;;;;;;;;5037818;28;20041;-55
2022/01/10 04:02:59;;;;;;;17.15;4.82;;;;;;;;;;5043775;28;20095;-53
2022/01/10 04:05:25;;;;;;;16.08;4.38;;;;;;;;;;5042652;28;20380;-54
2022/01/10 04:07:50;;;;;;;13.45;4.97;;;;;;;;;;5039352;28;20055;-54
2022/01/10 04:10:16;;;;;;;15.30;4.88;;;;;;;;;;5071060;28;20047;-54
2022/01/10 04:12:41;;;;;;;18.60;6.00;;;;;;;;;;5075274;28;20017;-54
2022/01/10 04:15:10;;;;;;;13.95;4.90;;;;;;;;;;5040898;28;20167;-54
2022/01/10 04:17:37;;;;;;;15.93;4.82;;;;;;;;;;5043408;28;20037;-54
2022/01/10 04:20:04;;;;;;;10.27;4.38;;;;;;;;;;5045354;28;20068;-55
2022/01/10 04:22:29;;;;;;;15.95;4.60;;;;;;;;;;5038650;28;20131;-54
2022/01/10 04:24:55;;;;;;;11.35;4.38;;;;;;;;;;5036484;28;20524;-54
2022/01/10 04:27:20;;;;;;;15.13;4.53;;;;;;;;;;5074166;28;20533;-54
2022/01/10 04:29:46;;;;;;;11.68;5.10;;;;;;;;;;5039828;28;20033;-55
2022/01/10 04:32:12;;;;;;;7.60;3.85;;;;;;;;;;5039914;28;20163;-54
2022/01/10 04:34:39;;;;;;;7.47;4.05;;;;;;;;;;5034223;28;20519;-55
2022/01/10 04:37:05;;;;;;;16.52;4.63;;;;;;;;;;5042394;28;20041;-54
2022/01/10 04:39:30;;;;;;;11.50;4.10;;;;;;;;;;5039258;28;20046;-55
2022/01/10 04:41:56;;;;;;;12.88;3.92;;;;;;;;;;5039240;28;20629;-55
2022/01/10 04:44:21;;;;;;;14.20;4.90;;;;;;;;;;5034108;28;20037;-53
2022/01/10 04:46:47;;;;;;;15.75;3.72;;;;;;;;;;5040352;28;20559;-55
2022/01/10 04:49:21;;;;;;;15.57;4.18;;;;;;;;;;5036581;28;20120;-55
2022/01/10 04:51:50;;;;;;;22.77;3.40;;;;;;;;;;5037185;28;20036;-55
2022/01/10 04:54:17;;;;;;;18.75;3.97;;;;;;;;;;5039627;28;20036;-55
2022/01/10 04:56:43;;;;;;;19.50;4.10;;;;;;;;;;5039615;28;20281;-54
2022/01/10 04:59:09;;;;;;;15.18;3.90;;;;;;;;;;5040324;28;20033;-54
2022/01/10 05:01:34;;;;;;;13.63;4.00;;;;;;;;;;5034570;28;20083;-54
2022/01/10 05:04:00;;;;;;;21.83;4.22;;;;;;;;;;5028854;28;20036;-55
2022/01/10 05:06:25;;;;;;;16.08;3.90;;;;;;;;;;5037995;28;20347;-55
2022/01/10 05:08:51;;;;;;;14.10;3.88;;;;;;;;;;5039330;28;20029;-54
2022/01/10 05:11:17;;;;;;;14.30;3.80;;;;;;;;;;5035012;28;20481;-55
2022/01/10 05:13:43;;;;;;;18.30;3.75;;;;;;;;;;5040351;28;20057;-55
2022/01/10 05:16:08;;;;;;;15.18;3.50;;;;;;;;;;5039364;28;20036;-54
2022/01/10 05:18:34;;;;;;;17.35;3.83;;;;;;;;;;5038936;28;20584;-54
2022/01/10 05:20:59;;;;;;;17.85;3.70;;;;;;;;;;5045605;28;20498;-54
2022/01/10 05:23:25;;;;;;;11.90;3.38;;;;;;;;;;5039212;28;20029;-54
2022/01/10 05:25:50;;;;;;;8.93;3.30;;;;;;;;;;5036672;28;20033;-55
2022/01/10 05:28:17;;;;;;;11.02;4.05;;;;;;;;;;5035816;28;20049;-55
2022/01/10 05:30:43;;;;;;;10.25;3.33;;;;;;;;;;5040225;28;20041;-55
2022/01/10 05:33:09;;;;;;;14.90;3.92;;;;;;;;;;5039367;28;20021;-55
2022/01/10 05:35:39;;;;;;;11.32;3.85;;;;;;;;;;5038556;28;20035;-55
2022/01/10 05:38:05;;;;;;;17.05;4.30;;;;;;;;;;5037761;28;21058;-55
2022/01/10 05:40:31;;;;;;;13.40;3.50;;;;;;;;;;5038040;28;20072;-54
2022/01/10 05:42:56;;;;;;;14.05;3.88;;;;;;;;;;5042921;28;20047;-54
2022/01/10 05:45:22;;;;;;;12.07;4.00;;;;;;;;;;5039982;28;20243;-55
2022/01/10 05:47:48;;;;;;;8.95;4.05;;;;;;;;;;5036092;28;20489;-54
2022/01/10 05:50:18;;;;;;;11.48;4.43;;;;;;;;;;5033017;28;20532;-54
2022/01/10 05:52:45;;;;;;;14.57;5.22;;;;;;;;;;5040332;28;20025;-53
2022/01/10 05:55:11;;;;;;;12.15;4.07;;;;;;;;;;5038175;28;20037;-54
2022/01/10 05:57:37;;;;;;;17.33;4.53;;;;;;;;;;5039224;28;20037;-55
2022/01/10 06:00:04;;;;;;;14.75;4.38;;;;;;;;;;5034612;28;20029;-54
2022/01/10 06:02:29;;;;;;;11.73;4.53;;;;;;;;;;5039979;28;20124;-55
2022/01/10 06:04:57;;;;;;;13.73;4.40;;;;;;;;;;5043249;28;20123;-54
2022/01/10 06:07:22;;;;;;;19.45;5.03;;;;;;;;;;5040334;28;20324;-55
2022/01/10 06:09:48;;;;;;;28.85;4.90;;;;;;;;;;5040362;28;20071;-55
2022/01/10 06:12:13;;;;;;;19.35;5.90;;;;;;;;;;5039293;28;20442;-55
2022/01/10 06:14:39;;;;;;;27.90;5.72;;;;;;;;;;5040010;28;20104;-54
2022/01/10 06:17:04;;;;;;;19.08;5.47;;;;;;;;;;5042789;28;20075;-55
2022/01/10 06:19:30;;;;;;;30.90;7.28;;;;;;;;;;5072972;28;20091;-55
2022/01/10 06:21:55;;;;;;;31.83;6.63;;;;;;;;;;5046242;28;20029;-56
2022/01/10 06:24:21;;;;;;;17.33;5.72;;;;;;;;;;5043116;28;20446;-55
2022/01/10 06:26:46;;;;;;;39.92;6.43;;;;;;;;;;5071591;28;20033;-55
2022/01/10 06:29:12;;;;;;;31.95;5.20;;;;;;;;;;5044178;28;20060;-54
2022/01/10 06:31:37;;;;;;;37.08;4.55;;;;;;;;;;5040639;28;20029;-54
2022/01/10 06:34:03;;;;;;;24.88;4.25;;;;;;;;;;5078508;28;20490;-55
2022/01/10 06:36:28;;;;;;;39.22;4.25;;;;;;;;;;5043625;28;20032;-55
2022/01/10 06:38:54;;;;;;;34.65;4.25;;;;;;;;;;5042437;28;20064;-56
2022/01/10 06:41:19;;;;;;;42.33;4.55;;;;;;;;;;5040765;28;20423;-55
2022/01/10 06:43:45;;;;;;;46.30;5.28;;;;;;;;;;5038628;28;20048;-55
2022/01/10 06:46:10;;;;;;;45.60;5.35;;;;;;;;;;5043205;28;20468;-56
2022/01/10 06:48:36;;;;;;;45.30;6.18;;;;;;;;;;5042285;28;20044;-55
2022/01/10 06:51:01;;;;;;;49.42;6.18;;;;;;;;;;5042159;28;20356;-54
2022/01/10 06:53:27;;;;;;;56.03;5.35;;;;;;;;;;5046038;28;20033;-56
2022/01/10 06:55:52;;;;;;;53.20;5.60;;;;;;;;;;5041111;28;20042;-55
2022/01/10 06:58:18;;;;;;;35.58;6.03;;;;;;;;;;5034987;28;20483;-55
2022/01/10 07:00:44;;;;;;;52.65;4.53;;;;;;;;;;5041816;28;20478;-56
2022/01/10 07:03:10;;;;;;;48.28;4.88;;;;;;;;;;5036407;28;20077;-54
2022/01/10 07:05:36;;;;;;;29.65;3.97;;;;;;;;;;5043029;28;20037;-55
2022/01/10 07:08:02;;;;;;;43.50;3.88;;;;;;;;;;5045082;28;20064;-54
2022/01/10 07:10:28;;;;;;;31.77;3.53;;;;;;;;;;5041292;28;20469;-55
2022/01/10 07:12:54;;;;;;;40.80;4.95;;;;;;;;;;5045518;28;20032;-56
2022/01/10 07:15:21;;;;;;;31.27;3.45;;;;;;;;;;5044528;28;20025;-56
2022/01/10 07:17:46;;;;;;;26.80;3.67;;;;;;;;;;5044422;28;20082;-56
2022/01/10 07:20:12;;;;;;;24.10;4.75;;;;;;;;;;5036940;28;20064;-56
2022/01/10 07:22:38;;;;;;;20.23;2.63;;;;;;;;;;5044143;28;20037;-55
2022/01/10 07:25:04;;;;;;;21.63;3.22;;;;;;;;;;5041871;28;20032;-55
2022/01/10 07:27:30;;;;;;;15.52;3.20;;;;;;;;;;5046551;28;20040;-55
2022/01/10 07:29:55;;;;;;;22.50;2.83;;;;;;;;;;5040740;28;20478;-55
2022/01/10 07:32:21;;;;;;;24.85;3.03;;;;;;;;;;5043358;28;20032;-54
2022/01/10 07:34:46;;;;;;;21.95;3.00;;;;;;;;;;5040667;28;20524;-56
2022/01/10 07:37:12;;;;;;;25.15;3.08;;;;;;;;;;5041494;28;20033;-55
2022/01/10 07:39:37;;;;;;;19.10;2.53;;;;;;;;;;5039049;28;20122;-55
2022/01/10 07:42:03;;;;;;;14.40;1.77;;;;;;;;;;5037249;28;20436;-56
2022/01/10 07:44:29;;;;;;;11.27;1.63;;;;;;;;;;5040086;28;20063;-56
2022/01/10 07:46:55;;;;;;;12.80;2.25;;;;;;;;;;5043514;28;20021;-55
2022/01/10 07:49:21;;;;;;;10.00;1.40;;;;;;;;;;5044416;28;20499;-56
2022/01/10 07:51:47;;;;;;;7.07;1.50;;;;;;;;;;5034244;28;20463;-54
2022/01/10 07:54:13;;;;;;;7.82;1.80;;;;;;;;;;5039969;28;20115;-56
2022/01/10 07:56:39;;;;;;;14.13;1.58;;;;;;;;;;5034103;28;20063;-55
2022/01/10 07:59:04;;;;;;;9.73;2.20;;;;;;;;;;5038017;28;20099;-56
2022/01/10 08:01:30;;;;;;;3.58;1.50;;;;;;;;;;5041298;28;20033;-56
2022/01/10 08:03:55;;;;;;;10.27;1.38;;;;;;;;;;5039223;28;20041;-55
2022/01/10 08:06:22;;;;;;;2.92;1.00;;;;;;;;;;5042279;28;20530;-56
2022/01/10 08:08:48;;;;;;;9.57;1.75;;;;;;;;;;5036920;28;20029;-54
2022/01/10 08:11:16;;;;;;;15.77;1.52;;;;;;;;;;5045429;28;20033;-55
2022/01/10 08:13:41;;;;;;;4.25;0.88;;;;;;;;;;5037815;28;20112;-57
2022/01/10 08:16:08;;;;;;;9.45;0.95;;;;;;;;;;5038485;28;20512;-51
2022/01/10 08:18:34;;;;;;;8.10;1.10;;;;;;;;;;5040256;28;20039;-54
2022/01/10 08:21:01;;;;;;;10.52;0.70;;;;;;;;;;5043119;28;20057;-58
2022/01/10 08:23:27;;;;;;;3.35;0.88;;;;;;;;;;5037710;28;20401;-50
2022/01/10 08:25:52;;;;;;;6.60;1.00;;;;;;;;;;5043454;28;20488;-53
2022/01/10 08:28:18;;;;;;;6.65;1.50;;;;;;;;;;5039221;28;20028;-52
2022/01/10 08:30:44;;;;;;;6.38;1.00;;;;;;;;;;5041606;28;20403;-54
2022/01/10 08:33:09;;;;;;;3.63;1.00;;;;;;;;;;5044824;28;20490;-53
2022/01/10 08:35:35;;;;;;;7.30;1.05;;;;;;;;;;5048103;28;20040;-54
2022/01/10 08:38:01;;;;;;;6.53;0.85;;;;;;;;;;5042917;28;20060;-53
2022/01/10 08:40:26;;;;;;;6.63;0.98;;;;;;;;;;5047524;28;20483;-54
2022/01/10 08:42:52;;;;;;;5.32;1.13;;;;;;;;;;5046136;28;20036;-54
2022/01/10 08:45:19;;;;;;;10.68;1.25;;;;;;;;;;5047089;28;20059;-54
2022/01/10 08:47:46;;;;;;;12.32;1.75;;;;;;;;;;5040141;28;20040;-52
2022/01/10 08:50:12;;;;;;;9.23;1.17;;;;;;;;;;5042378;28;20040;-55
2022/01/10 08:52:39;;;;;;;15.02;1.30;;;;;;;;;;5039308;28;20565;-55
2022/01/10 08:55:07;;;;;;;7.32;1.10;;;;;;;;;;5037098;28;20043;-55
2022/01/10 08:57:33;;;;;;;13.73;1.40;;;;;;;;;;5033072;28;20026;-55
2022/01/10 08:59:59;;;;;;;11.30;1.42;;;;;;;;;;5042470;28;20032;-55
2022/01/10 09:02:24;;;;;;;9.85;1.48;;;;;;;;;;5067359;28;20041;-55
2022/01/10 09:04:50;;;;;;;10.55;1.40;;;;;;;;;;5039845;28;20526;-55
2022/01/10 09:07:15;;;;;;;4.88;1.52;;;;;;;;;;5041672;28;20467;-55
2022/01/10 09:09:42;;;;;;;5.00;1.45;;;;;;;;;;5036419;28;20596;-54
2022/01/10 09:12:08;;;;;;;6.85;1.10;;;;;;;;;;5070433;28;20055;-55
2022/01/10 09:14:34;;;;;;;7.07;1.42;;;;;;;;;;5042075;28;20041;-55
2022/01/10 09:16:59;;;;;;;10.32;1.42;;;;;;;;;;5043886;28;20036;-55
2022/01/10 09:19:25;;;;;;;8.73;1.30;;;;;;;;;;5044452;28;20052;-56
2022/01/10 09:21:51;;;;;;;12.45;2.03;;;;;;;;;;5042680;28;20028;-54
2022/01/10 09:24:16;;;;;;;9.73;1.40;;;;;;;;;;5035729;28;20044;-56
2022/01/10 09:26:42;;;;;;;6.88;0.98;;;;;;;;;;5044091;28;20170;-54
2022/01/10 09:29:08;;;;;;;3.67;1.00;;;;;;;;;;5038984;28;20075;-55
2022/01/10 09:31:34;;;;;;;4.50;0.98;;;;;;;;;;5043552;28;20048;-54
2022/01/10 09:34:00;;;;;;;12.32;1.88;;;;;;;;;;5074121;28;20033;-55
2022/01/10 09:36:29;;;;;;;9.23;1.20;;;;;;;;;;5046893;28;20036;-56
2022/01/10 09:38:55;;;;;;;5.45;1.05;;;;;;;;;;5046846;28;20142;-56
2022/01/10 09:41:22;;;;;;;7.50;0.80;;;;;;;;;;5042488;28;20025;-56
2022/01/10 09:43:51;;;;;;;6.07;1.35;;;;;;;;;;5043913;28;20085;-56
2022/01/10 09:46:17;;;;;;;4.47;1.20;;;;;;;;;;5044753;28;20029;-56
2022/01/10 09:48:43;;;;;;;8.35;1.25;;;;;;;;;;5039384;28;20035;-56
2022/01/10 09:51:09;;;;;;;10.45;1.55;;;;;;;;;;5040663;28;20033;-55
2022/01/10 09:53:36;;;;;;;14.90;1.95;;;;;;;;;;5039978;28;20028;-56
2022/01/10 09:56:02;;;;;;;13.13;1.73;;;;;;;;;;5040518;28;20028;-55
2022/01/10 09:58:28;;;;;;;28.98;2.90;;;;;;;;;;5044833;28;20081;-56
2022/01/10 10:00:55;;;;;;;10.00;1.52;;;;;;;;;;5042873;28;20464;-56
2022/01/10 10:03:23;;;;;;;13.63;1.33;;;;;;;;;;5043148;28;20099;-54
2022/01/10 10:05:52;;;;;;;17.73;1.92;;;;;;;;;;5042999;28;20687;-55
2022/01/10 10:08:22;;;;;;;8.80;1.40;;;;;;;;;;5040924;28;20044;-56
2022/01/10 10:10:49;;;;;;;12.55;1.20;;;;;;;;;;5041922;28;20634;-56
2022/01/10 10:13:15;;;;;;;11.48;1.52;;;;;;;;;;5043898;28;20115;-55
2022/01/10 10:15:44;;;;;;;8.85;1.60;;;;;;;;;;5041609;28;20074;-56
2022/01/10 10:18:14;;;;;;;5.10;0.85;;;;;;;;;;5040766;28;20036;-55
2022/01/10 10:20:41;;;;;;;4.93;0.95;;;;;;;;;;5038780;28;20045;-55
2022/01/10 10:23:13;;;;;;;5.10;0.73;;;;;;;;;;5038699;28;20055;-56
2022/01/10 10:25:45;;;;;;;6.83;0.83;;;;;;;;;;5042133;28;20043;-56
2022/01/10 10:28:12;;;;;;;5.43;0.82;;;;;;;;;;5042395;28;20025;-56
2022/01/10 10:30:38;;;;;;;4.68;0.80;;;;;;;;;;5037955;28;20136;-54
2022/01/10 10:33:14;;;;;;;7.45;1.10;;;;;;;;;;5039294;28;20495;-55
2022/01/10 10:35:41;;;;;;;17.25;1.02;;;;;;;;;;5036671;28;20061;-55
2022/01/10 10:38:07;;;;;;;9.63;1.63;;;;;;;;;;5044584;28;20024;-56
2022/01/10 10:40:42;;;;;;;8.43;0.80;;;;;;;;;;5040555;28;20059;-56
2022/01/10 10:43:09;;;;;;;2.75;0.63;;;;;;;;;;5040570;28;20041;-56
2022/01/10 10:45:34;;;;;;;4.30;0.70;;;;;;;;;;5046229;28;20029;-56
2022/01/10 10:48:05;;;;;;;4.18;1.13;;;;;;;;;;5042614;28;20029;-56
2022/01/10 10:50:34;;;;;;;4.00;1.20;;;;;;;;;;5039165;28;20469;-56
2022/01/10 10:53:04;;;;;;;6.22;1.00;;;;;;;;;;5040026;28;20420;-56
2022/01/10 10:55:29;;;;;;;8.32;1.40;;;;;;;;;;5039925;28;20120;-55
2022/01/10 10:57:56;;;;;;;6.30;0.90;;;;;;;;;;5041589;28;20133;-54
2022/01/10 11:00:21;;;;;;;5.07;0.90;;;;;;;;;;5042795;28;20041;-56
2022/01/10 11:02:47;;;;;;;5.55;0.88;;;;;;;;;;5040958;28;20444;-55
2022/01/10 11:05:13;;;;;;;5.28;0.82;;;;;;;;;;5043289;28;20395;-56
2022/01/10 11:07:38;;;;;;;9.27;1.70;;;;;;;;;;5044408;28;20032;-56
2022/01/10 11:10:06;;;;;;;2.17;0.75;;;;;;;;;;5041583;28;20045;-55
2022/01/10 11:12:34;;;;;;;2.20;0.80;;;;;;;;;;5044151;28;20111;-55
2022/01/10 11:15:00;;;;;;;8.90;1.50;;;;;;;;;;5044884;28;20407;-55
2022/01/10 11:17:27;;;;;;;7.13;1.67;;;;;;;;;;5042568;28;20029;-54
2022/01/10 11:20:08;;;;;;;7.25;1.38;;;;;;;;;;5044902;28;20033;-56
2022/01/10 11:22:35;;;;;;;7.10;0.90;;;;;;;;;;5046660;28;20034;-55
2022/01/10 11:25:02;;;;;;;8.27;1.13;;;;;;;;;;5044537;28;20025;-57
2022/01/10 11:27:31;;;;;;;5.30;1.08;;;;;;;;;;5047238;28;20025;-55
2022/01/10 11:29:57;;;;;;;4.47;1.20;;;;;;;;;;5039368;28;20036;-55
2022/01/10 11:32:51;;;;;;;7.05;1.00;;;;;;;;;;5044851;28;20032;-54
2022/01/10 11:35:18;;;;;;;7.15;0.90;;;;;;;;;;5046243;28;20036;-54
2022/01/10 11:37:45;;;;;;;3.45;0.90;;;;;;;;;;5043388;28;20029;-55
2022/01/10 11:40:13;;;;;;;2.92;0.90;;;;;;;;;;5041552;28;20087;-54
2022/01/10 11:42:46;;;;;;;9.50;1.33;;;;;;;;;;5041614;28;20069;-55
2022/01/10 11:45:14;;;;;;;9.55;1.27;;;;;;;;;;5039763;28;20044;-56
2022/01/10 11:48:02;;;;;;;4.07;1.15;;;;;;;;;;5046118;28;20078;-56
2022/01/10 11:50:29;;;;;;;7.05;1.20;;;;;;;;;;5038139;28;20025;-54
2022/01/10 11:52:57;;;;;;;2.97;1.00;;;;;;;;;;5041146;28;20100;-54
2022/01/10 11:55:53;;;;;;;4.95;1.00;;;;;;;;;;5043822;28;20489;-54
2022/01/10 11:58:22;;;;;;;5.38;1.73;;;;;;;;;;5037057;28;20084;-56
2022/01/10 12:00:50;;;;;;;7.45;1.02;;;;;;;;;;5040018;28;20614;-57
2022/01/10 12:03:21;;;;;;;4.32;0.68;;;;;;;;;;5042747;28;20031;-56
2022/01/10 12:05:48;;;;;;;6.57;0.75;;;;;;;;;;5044510;28;20403;-55
2022/01/10 12:08:13;;;;;;;4.60;1.17;;;;;;;;;;5037793;28;20225;-55
2022/01/10 12:10:39;;;;;;;3.00;1.30;;;;;;;;;;5043135;28;20488;-55
2022/01/10 12:13:10;;;;;;;2.95;0.82;;;;;;;;;;5043243;28;20544;-56
2022/01/10 12:15:38;;;;;;;11.82;1.17;;;;;;;;;;5041322;28;20043;-54
2022/01/10 12:18:06;;;;;;;2.10;0.70;;;;;;;;;;5044859;28;20033;-55
2022/01/10 12:20:33;;;;;;;5.75;0.80;;;;;;;;;;5047119;28;20327;-56
2022/01/10 12:23:00;;;;;;;8.18;1.25;;;;;;;;;;5045273;28;20033;-56
2022/01/10 12:25:26;;;;;;;3.00;1.58;;;;;;;;;;5040360;28;20033;-56
2022/01/10 12:27:54;;;;;;;4.55;0.57;;;;;;;;;;5042844;28;20052;-56
2022/01/10 12:30:21;;;;;;;3.20;0.80;;;;;;;;;;5034977;28;20248;-56
2022/01/10 12:32:47;;;;;;;5.22;0.60;;;;;;;;;;5043582;28;20036;-55
2022/01/10 12:35:13;;;;;;;7.30;2.08;;;;;;;;;;5041802;28;20040;-55
2022/01/10 12:37:39;;;;;;;6.35;0.90;;;;;;;;;;5038932;28;20435;-56
2022/01/10 12:40:06;;;;;;;3.22;0.70;;;;;;;;;;5040388;28;20056;-56
2022/01/10 12:42:32;;;;;;;4.93;0.90;;;;;;;;;;5037828;28;20153;-56
2022/01/10 12:44:58;;;;;;;4.13;1.05;;;;;;;;;;5036287;28;20619;-56
2022/01/10 12:47:24;;;;;;;5.07;0.95;;;;;;;;;;5043335;28;20028;-55
2022/01/10 12:49:51;;;;;;;4.22;1.00;;;;;;;;;;5045673;28;20075;-55
2022/01/10 12:52:16;;;;;;;4.03;0.80;;;;;;;;;;5042123;28;20565;-56
2022/01/10 12:54:42;;;;;;;5.03;0.93;;;;;;;;;;5041609;28;20028;-57
2022/01/10 12:57:08;;;;;;;3.13;1.05;;;;;;;;;;5041159;28;20053;-56
2022/01/10 12:59:37;;;;;;;15.60;1.92;;;;;;;;;;5031802;28;20708;-56
2022/01/10 13:02:06;;;;;;;4.82;0.82;;;;;;;;;;5038933;28;20058;-55
2022/01/10 13:04:38;;;;;;;3.67;0.73;;;;;;;;;;5038822;28;20217;-56
2022/01/10 13:07:10;;;;;;;3.60;1.00;;;;;;;;;;5040473;28;20047;-56
2022/01/10 13:09:37;;;;;;;;;;;;;;;;;;5040925;28;20040;-56
2022/01/10 13:12:25;;;;;;;3.50;1.13;;;;;;;;;;5039268;28;19916;-56
2022/01/10 13:14:51;;;;;;;2.72;0.75;;;;;;;;;;5041328;28;20060;-56
2022/01/10 13:17:24;;;;;;;2.15;1.08;;;;;;;;;;5043737;28;20056;-56
2022/01/10 13:19:59;;;;;;;;;;;;;;;;;;5038234;28;20037;-55
2022/01/10 13:22:31;;;;;;;4.60;0.60;;;;;;;;;;5033639;28;19916;-56
2022/01/10 13:24:58;;;;;;;;;;;;;;;;;;5045165;28;20086;-55
2022/01/10 13:27:31;;;;;;;8.05;1.10;;;;;;;;;;5037703;28;20375;-55
2022/01/10 13:29:58;;;;;;;6.65;1.13;;;;;;;;;;5039487;28;20068;-55
2022/01/10 13:32:29;;;;;;;9.73;2.05;;;;;;;;;;5039413;28;20051;-56
2022/01/10 13:35:02;;;;;;;3.75;0.80;;;;;;;;;;5038551;28;20032;-54
2022/01/10 13:37:33;;;;;;;4.88;0.85;;;;;;;;;;5041725;28;20303;-55
2022/01/10 13:40:12;;;;;;;7.72;0.95;;;;;;;;;;5041277;28;20098;-56
2022/01/10 13:42:41;;;;;;;5.78;0.90;;;;;;;;;;5042229;28;20029;-57
2022/01/10 13:45:09;;;;;;;5.03;0.90;;;;;;;;;;5043675;28;20044;-57
2022/01/10 13:48:08;;;;;;;3.47;1.27;;;;;;;;;;5040662;28;20499;-56
2022/01/10 13:50:34;;;;;;;8.77;0.90;;;;;;;;;;5006570;28;20321;-55
2022/01/10 13:53:13;;;;;;;7.95;1.05;;;;;;;;;;5031592;28;20029;-56
2022/01/10 13:55:43;;;;;;;5.78;1.58;;;;;;;;;;5040482;28;20033;-56
2022/01/10 13:58:23;;;;;;;5.78;1.40;;;;;;;;;;5037465;28;20021;-56
2022/01/10 14:00:57;;;;;;;5.43;0.73;;;;;;;;;;5038915;28;20135;-56
2022/01/10 14:03:25;;;;;;;11.30;1.20;;;;;;;;;;5039427;28;20075;-56
2022/01/10 14:06:10;;;;;;;4.00;1.25;;;;;;;;;;5046233;28;20358;-57
2022/01/10 14:08:44;;;;;;;3.03;0.60;;;;;;;;;;5037489;28;20033;-55
2022/01/10 14:11:13;;;;;;;8.55;1.45;;;;;;;;;;5047103;28;20056;-55
2022/01/10 14:13:41;;;;;;;8.63;1.17;;;;;;;;;;5042083;28;20587;-56
2022/01/10 14:16:06;;;;;;;3.65;1.08;;;;;;;;;;5046204;28;20195;-56
2022/01/10 14:18:32;;;;;;;8.50;1.10;;;;;;;;;;5037683;28;20033;-53
2022/01/10 14:20:58;;;;;;;5.40;1.27;;;;;;;;;;5045761;28;20518;-54
2022/01/10 14:23:25;;;;;;;3.67;1.27;;;;;;;;;;5043315;28;20025;-54
2022/01/10 14:25:52;;;;;;;8.55;1.10;;;;;;;;;;5044003;28;20036;-55
2022/01/10 14:28:18;;;;;;;9.95;1.20;;;;;;;;;;5038815;28;20033;-54
2022/01/10 14:30:45;;;;;;;5.03;1.35;;;;;;;;;;5041605;28;20037;-54
2022/01/10 14:33:11;;;;;;;4.43;0.77;;;;;;;;;;5042673;28;20025;-54
2022/01/10 14:35:37;;;;;;;4.43;1.13;;;;;;;;;;5038586;28;20441;-54
2022/01/10 14:38:02;;;;;;;8.32;1.10;;;;;;;;;;5049168;28;20029;-54
2022/01/10 14:40:28;;;;;;;5.72;0.98;;;;;;;;;;5045845;28;20045;-55
2022/01/10 14:42:54;;;;;;;4.75;0.95;;;;;;;;;;5043018;28;20040;-54
2022/01/10 14:45:20;;;;;;;4.97;1.00;;;;;;;;;;5046160;28;20041;-54